Time;durP1;ratioP1;P1;durP2;ratioP2;P2;SDS_P1;SDS_P2;PMS_P1;PMS_P2;Temp;Humidity;BMP_temperature;BMP_pressure;BME280_temperature;BME280_humidity;BME280_pressure;Samples;Min_cycle;Max_cycle;Signal;HPM_P1;HPM_P2
2021/01/10 00:01:18;;;;;;;5.23;2.90;;;;;;;2.77;79.38;94605.00;5073880;28;20158;-73
2021/01/10 00:03:44;;;;;;;4.30;2.90;;;;;;;2.87;79.15;94613.44;5091197;28;20181;-72
2021/01/10 00:06:09;;;;;;;3.93;3.30;;;;;;;3.16;78.03;94588.44;5091688;28;20630;-73
2021/01/10 00:08:35;;;;;;;3.77;3.00;;;;;;;3.32;77.58;94591.44;5073225;28;20189;-73
2021/01/10 00:11:00;;;;;;;5.30;3.47;;;;;;;3.10;78.29;94592.28;5057091;28;20170;-73
2021/01/10 00:13:26;;;;;;;4.70;3.77;;;;;;;3.09;78.39;94588.88;5091549;28;20209;-73
2021/01/10 00:15:51;;;;;;;6.20;3.40;;;;;;;2.98;78.41;94600.78;5056656;28;20565;-73
2021/01/10 00:18:17;;;;;;;7.93;3.83;;;;;;;2.85;79.24;94609.53;5073660;28;20169;-74
2021/01/10 00:20:42;;;;;;;4.80;3.47;;;;;;;2.79;79.50;94616.78;5073268;28;20179;-73
2021/01/10 00:23:08;;;;;;;6.63;4.23;;;;;;;2.89;79.65;94619.19;5091291;28;20237;-73
2021/01/10 00:25:34;;;;;;;6.75;4.60;;;;;;;2.80;79.37;94615.72;5056728;28;20194;-73
2021/01/10 00:27:59;;;;;;;5.60;4.30;;;;;;;2.77;80.09;94618.19;5091599;28;20174;-73
2021/01/10 00:30:25;;;;;;;5.17;3.60;;;;;;;2.92;79.36;94625.72;5091246;28;20224;-73
2021/01/10 00:32:51;;;;;;;5.97;3.97;;;;;;;3.16;78.15;94625.38;5055938;28;20182;-73
2021/01/10 00:35:17;;;;;;;4.30;3.08;;;;;;;3.22;77.43;94626.78;5056655;28;20178;-73
2021/01/10 00:38:01;;;;;;;6.00;3.53;;;;;;;3.34;77.21;94634.91;5073361;28;20265;-73
2021/01/10 00:40:27;;;;;;;3.92;3.03;;;;;;;3.28;77.05;94633.47;5091174;28;20178;-72
2021/01/10 00:42:52;;;;;;;3.37;2.77;;;;;;;3.43;76.63;94630.44;5056778;28;20182;-73
2021/01/10 00:45:18;;;;;;;5.20;3.43;;;;;;;3.37;77.10;94625.63;5056179;28;20183;-73
2021/01/10 00:47:44;;;;;;;3.50;2.93;;;;;;;3.41;76.53;94606.19;5056139;28;20191;-73
2021/01/10 00:50:10;;;;;;;2.93;2.63;;;;;;;3.51;75.83;94618.34;5073353;28;20170;-73
2021/01/10 00:52:35;;;;;;;3.20;2.70;;;;;;;3.47;76.61;94620.03;5072542;28;20572;-73
2021/01/10 00:55:02;;;;;;;5.00;3.43;;;;;;;3.43;76.46;94617.25;5091067;28;20205;-73
2021/01/10 00:57:27;;;;;;;3.60;3.25;;;;;;;3.35;77.02;94612.69;5056346;28;20553;-73
2021/01/10 00:59:53;;;;;;;5.60;2.93;;;;;;;3.37;76.84;94607.91;5091304;28;20174;-73
2021/01/10 01:02:18;;;;;;;4.77;2.60;;;;;;;3.39;76.55;94599.69;5072951;28;20243;-73
2021/01/10 01:04:45;;;;;;;3.57;2.57;;;;;;;3.40;76.91;94588.81;5091176;28;20194;-73
2021/01/10 01:07:11;;;;;;;4.43;3.03;;;;;;;3.35;76.95;94606.66;5073180;28;20186;-73
2021/01/10 01:09:36;;;;;;;5.43;2.90;;;;;;;3.40;76.84;94596.72;5073049;28;20179;-73
2021/01/10 01:12:04;;;;;;;3.73;3.00;;;;;;;3.50;76.08;94608.09;5072513;28;20573;-73
2021/01/10 01:14:29;;;;;;;5.63;2.78;;;;;;;3.47;76.76;94591.00;5072753;28;20367;-73
2021/01/10 01:37:54;;;;;;;3.28;2.92;;;;;;;3.23;77.32;94578.19;5129409;27;20540;-73
2021/01/10 01:40:20;;;;;;;3.73;3.43;;;;;;;3.32;77.08;94560.53;5111768;28;20188;-72
2021/01/10 01:42:46;;;;;;;3.70;2.40;;;;;;;3.40;76.80;94557.13;5129257;27;20165;-72
2021/01/10 01:45:11;;;;;;;2.50;2.30;;;;;;;3.17;77.58;94553.03;5129709;27;20256;-74
2021/01/10 01:47:37;;;;;;;2.73;2.43;;;;;;;2.97;78.71;94566.78;5129813;27;20169;-73
2021/01/10 01:50:03;;;;;;;4.07;2.57;;;;;;;3.12;78.16;94569.78;5129464;27;20173;-74
2021/01/10 01:52:29;;;;;;;2.63;2.38;;;;;;;3.31;77.21;94574.84;5129499;27;20170;-76
2021/01/10 01:54:54;;;;;;;2.00;1.90;;;;;;;3.43;76.41;94582.94;5128031;27;20188;-74
2021/01/10 01:57:20;;;;;;;2.90;2.10;;;;;;;3.16;77.41;94591.06;5129447;27;20255;-73
2021/01/10 01:59:46;;;;;;;2.23;1.90;;;;;;;3.06;78.13;94594.75;5129466;27;20172;-75
2021/01/10 02:02:11;;;;;;;2.20;2.00;;;;;;;2.90;78.61;94594.34;5129312;27;20712;-75
2021/01/10 02:04:59;;;;;;;3.13;2.33;;;;;;;3.05;78.06;94613.53;5128136;28;20234;-75
2021/01/10 02:07:34;;;;;;;2.20;1.95;;;;;;;2.83;78.72;94603.78;5129181;27;20197;-75
2021/01/10 02:10:05;;;;;;;5.25;2.00;;;;;;;3.00;78.64;94595.97;5111718;28;20712;-73
2021/01/10 02:12:31;;;;;;;2.78;2.08;;;;;;;2.83;78.79;94587.97;5128032;27;20176;-75
2021/01/10 02:14:58;;;;;;;2.30;2.10;;;;;;;2.79;79.38;94556.16;5110725;28;20174;-74
2021/01/10 02:17:23;;;;;;;3.08;2.10;;;;;;;2.70;79.61;94576.44;5110456;28;20185;-76
2021/01/10 02:20:18;;;;;;;4.67;2.77;;;;;;;2.83;79.52;94580.06;5110773;28;20212;-73
2021/01/10 02:23:24;;;;;;;2.67;2.13;;;;;;;2.78;79.20;94583.59;5119713;28;20193;-73
2021/01/10 02:25:50;;;;;;;2.45;2.25;;;;;;;3.04;78.06;94573.19;5106238;28;20212;-76
2021/01/10 02:28:20;;;;;;;3.00;2.20;;;;;;;2.91;78.61;94579.31;5088991;28;20178;-75
2021/01/10 02:30:45;;;;;;;1.80;1.70;;;;;;;3.11;78.19;94596.47;5088994;28;20200;-73
2021/01/10 02:33:28;;;;;;;2.53;2.20;;;;;;;3.16;78.13;94599.75;5106010;28;20181;-74
2021/01/10 02:35:54;;;;;;;2.38;2.17;;;;;;;3.15;77.71;94602.72;5105995;28;20225;-75
2021/01/10 02:38:48;;;;;;;2.13;1.93;;;;;;;3.30;77.22;94597.00;5061653;28;20568;-76
2021/01/10 02:41:31;;;;;;;2.55;2.35;;;;;;;3.09;77.69;94612.63;5092509;28;20597;-73
2021/01/10 02:44:08;;;;;;;3.30;2.05;;;;;;;3.05;77.77;94627.47;5092406;28;20642;-73
2021/01/10 02:46:35;;;;;;;2.17;1.98;;;;;;;3.01;77.97;94613.34;5074567;28;20249;-73
2021/01/10 02:49:01;;;;;;;3.78;2.08;;;;;;;3.14;78.09;94630.94;5091788;28;20216;-73
2021/01/10 02:51:26;;;;;;;4.93;2.13;;;;;;;3.42;76.99;94634.16;5075146;28;20265;-74
2021/01/10 02:53:52;;;;;;;4.13;2.43;;;;;;;3.16;77.63;94635.91;5092365;28;20170;-72
2021/01/10 02:56:17;;;;;;;4.27;2.40;;;;;;;3.15;77.76;94629.88;5092117;28;20190;-73
2021/01/10 02:58:43;;;;;;;2.70;1.83;;;;;;;3.28;76.95;94625.56;5075352;28;20273;-73
2021/01/10 03:01:09;;;;;;;3.80;2.60;;;;;;;3.25;76.91;94604.28;5095000;28;20178;-72
2021/01/10 03:03:35;;;;;;;3.67;2.08;;;;;;;3.22;76.92;94607.53;5096217;28;20166;-74
2021/01/10 03:06:00;;;;;;;3.33;2.20;;;;;;;3.04;78.20;94612.75;5096100;28;20266;-73
2021/01/10 03:08:26;;;;;;;1.80;1.63;;;;;;;3.28;77.15;94617.66;5113056;28;20174;-72
2021/01/10 03:10:51;;;;;;;2.93;2.30;;;;;;;3.19;77.66;94616.81;5113258;28;20174;-73
2021/01/10 03:13:17;;;;;;;3.17;2.57;;;;;;;3.16;77.55;94618.22;5095936;28;20265;-73
2021/01/10 03:15:44;;;;;;;2.30;2.10;;;;;;;3.26;76.84;94619.81;5114307;28;20201;-73
2021/01/10 03:18:18;;;;;;;2.75;2.42;;;;;;;3.14;77.35;94624.88;5112839;28;20172;-74
2021/01/10 03:20:43;;;;;;;2.50;2.30;;;;;;;3.17;77.42;94627.69;5112832;28;20246;-73
2021/01/10 03:23:09;;;;;;;3.00;2.23;;;;;;;2.81;78.71;94640.25;5114016;28;20548;-74
2021/01/10 03:25:34;;;;;;;2.37;2.00;;;;;;;2.88;78.95;94637.94;5114151;28;20201;-73
2021/01/10 03:28:00;;;;;;;2.70;2.10;;;;;;;2.90;78.73;94635.78;5095951;28;20716;-73
2021/01/10 03:30:25;;;;;;;2.80;2.33;;;;;;;3.03;77.81;94642.84;5113042;28;20174;-75
2021/01/10 03:32:51;;;;;;;2.53;2.33;;;;;;;3.09;77.84;94646.91;5114013;28;20176;-76
2021/01/10 03:35:17;;;;;;;2.13;1.93;;;;;;;3.33;76.56;94651.81;5113730;28;20174;-75
2021/01/10 03:37:43;;;;;;;3.47;2.72;;;;;;;3.19;76.88;94659.81;5113670;28;20304;-75
2021/01/10 03:40:09;;;;;;;2.27;1.90;;;;;;;3.22;77.29;94641.84;5112538;28;20227;-74
2021/01/10 03:42:35;;;;;;;2.50;2.20;;;;;;;3.27;76.54;94639.84;5095848;28;20172;-74
2021/01/10 03:45:00;;;;;;;2.90;2.35;;;;;;;3.13;77.33;94641.78;5112345;28;20626;-74
2021/01/10 03:47:26;;;;;;;2.67;2.20;;;;;;;3.29;76.89;94639.53;5113694;28;20292;-74
2021/01/10 03:49:51;;;;;;;3.90;2.57;;;;;;;3.20;76.92;94639.50;5112448;28;20183;-75
2021/01/10 03:52:17;;;;;;;2.70;2.50;;;;;;;3.17;77.15;94640.88;5113492;28;20174;-73
2021/01/10 03:54:42;;;;;;;2.60;2.10;;;;;;;3.40;76.53;94643.47;5113541;28;20197;-73
2021/01/10 03:57:07;;;;;;;3.70;2.30;;;;;;;3.55;75.60;94631.72;5112197;27;20189;-74
2021/01/10 03:59:33;;;;;;;2.23;2.03;;;;;;;3.35;76.01;94619.84;5113657;28;20216;-77
2021/01/10 04:01:58;;;;;;;2.97;2.33;;;;;;;3.29;76.62;94629.75;5113240;28;20200;-76
2021/01/10 04:04:24;;;;;;;3.17;2.77;;;;;;;3.45;76.06;94630.91;5113619;28;20169;-77
2021/01/10 04:06:49;;;;;;;4.03;2.67;;;;;;;3.45;76.38;94630.91;5113013;28;20591;-77
2021/01/10 04:09:15;;;;;;;3.57;2.87;;;;;;;3.57;75.51;94634.81;5112170;28;20178;-77
2021/01/10 04:11:40;;;;;;;3.63;2.80;;;;;;;3.42;76.09;94633.38;5112192;28;20169;-77
2021/01/10 04:14:06;;;;;;;3.90;2.97;;;;;;;3.14;77.36;94652.06;5113401;28;20169;-77
2021/01/10 04:16:31;;;;;;;3.60;2.33;;;;;;;3.31;76.48;94642.63;5113326;28;20178;-77
2021/01/10 04:18:57;;;;;;;2.97;2.63;;;;;;;3.23;76.65;94635.47;5112953;28;20247;-77
2021/01/10 04:21:22;;;;;;;4.87;3.00;;;;;;;3.45;76.22;94636.19;5111802;28;20188;-76
2021/01/10 04:23:48;;;;;;;3.60;2.63;;;;;;;3.20;77.23;94639.50;5094587;28;20627;-76
2021/01/10 04:26:13;;;;;;;2.50;2.30;;;;;;;2.98;77.60;94640.34;5111604;28;20641;-77
2021/01/10 04:28:39;;;;;;;2.43;2.23;;;;;;;3.24;77.14;94640.44;5111472;28;21099;-77
2021/01/10 04:31:04;;;;;;;2.83;2.50;;;;;;;2.98;78.28;94647.47;5113110;28;20197;-76
2021/01/10 04:33:30;;;;;;;5.40;2.83;;;;;;;3.09;77.85;94639.00;5112685;28;20178;-75
2021/01/10 04:35:55;;;;;;;5.13;2.50;;;;;;;3.15;77.44;94632.50;5094186;28;20248;-77
2021/01/10 04:38:21;;;;;;;3.37;2.40;;;;;;;2.81;78.62;94638.38;5112742;28;20177;-76
2021/01/10 04:40:46;;;;;;;2.50;2.13;;;;;;;3.17;77.54;94645.38;5111259;28;20177;-74
2021/01/10 04:43:13;;;;;;;3.30;2.33;;;;;;;3.03;78.29;94636.75;5111633;28;20238;-76
2021/01/10 04:45:38;;;;;;;3.60;2.53;;;;;;;2.95;78.59;94643.56;5112365;28;20208;-76
2021/01/10 04:48:05;;;;;;;2.40;2.20;;;;;;;3.16;77.76;94644.59;5112824;28;20182;-75
2021/01/10 04:50:32;;;;;;;4.53;2.17;;;;;;;3.50;76.04;94632.63;5094491;28;20176;-74
2021/01/10 04:52:58;;;;;;;2.92;2.10;;;;;;;3.58;74.83;94620.53;5094610;28;20174;-74
2021/01/10 04:55:24;;;;;;;3.63;2.07;;;;;;;3.59;75.24;94630.00;5111265;28;20182;-73
2021/01/10 04:57:50;;;;;;;3.33;2.47;;;;;;;3.48;75.51;94629.53;5111035;28;20174;-74
2021/01/10 05:00:16;;;;;;;3.50;2.58;;;;;;;3.60;74.85;94636.88;5093379;28;20561;-73
2021/01/10 05:02:51;;;;;;;2.47;1.80;;;;;;;3.68;74.74;94633.47;5110624;28;20185;-74
2021/01/10 05:05:16;;;;;;;2.65;2.22;;;;;;;3.40;76.13;94627.63;5094106;28;20177;-74
2021/01/10 05:07:42;;;;;;;6.20;1.93;;;;;;;3.21;76.96;94630.50;5111027;28;20695;-74
2021/01/10 05:10:09;;;;;;;2.33;2.13;;;;;;;3.43;76.31;94640.22;5093901;28;20196;-74
2021/01/10 05:12:34;;;;;;;2.20;2.00;;;;;;;3.26;76.90;94635.66;5110720;28;20185;-75
2021/01/10 05:15:00;;;;;;;2.73;2.27;;;;;;;3.36;76.40;94630.09;5112287;28;20181;-74
2021/01/10 05:17:25;;;;;;;3.27;2.80;;;;;;;3.36;76.65;94635.38;5093719;28;20189;-76
2021/01/10 05:19:51;;;;;;;4.87;3.00;;;;;;;3.10;77.25;94643.19;5112088;28;20200;-76
2021/01/10 05:22:17;;;;;;;2.72;2.30;;;;;;;3.22;77.12;94647.91;5110647;28;20169;-74
2021/01/10 05:24:43;;;;;;;3.92;3.50;;;;;;;3.15;77.25;94644.91;5093793;28;20241;-74
2021/01/10 05:27:09;;;;;;;6.43;2.63;;;;;;;3.19;76.91;94630.78;5111760;28;20205;-74
2021/01/10 05:29:35;;;;;;;4.25;3.28;;;;;;;3.22;76.41;94634.69;5110573;28;20193;-73
2021/01/10 05:32:00;;;;;;;5.30;3.17;;;;;;;3.18;76.99;94634.53;5110555;28;20261;-74
2021/01/10 05:34:26;;;;;;;6.27;3.33;;;;;;;2.93;77.84;94640.47;5111964;28;20176;-77
2021/01/10 05:36:52;;;;;;;6.20;3.83;;;;;;;3.11;77.37;94650.00;5111665;28;20217;-77
2021/01/10 05:39:27;;;;;;;5.63;3.10;;;;;;;3.29;76.84;94640.31;5110331;28;20209;-76
2021/01/10 05:42:03;;;;;;;4.25;2.85;;;;;;;3.06;78.06;94642.22;5110744;28;20221;-74
2021/01/10 05:44:50;;;;;;;4.22;3.10;;;;;;;3.08;77.37;94639.28;5111804;28;20226;-76
2021/01/10 05:47:16;;;;;;;2.83;2.58;;;;;;;3.07;77.57;94648.28;5092041;28;20601;-74
2021/01/10 05:49:48;;;;;;;4.50;2.20;;;;;;;3.15;77.23;94653.63;5091524;28;20172;-76
2021/01/10 05:52:14;;;;;;;5.90;2.60;;;;;;;2.90;78.43;94670.84;5091244;28;20692;-75
2021/01/10 05:54:46;;;;;;;2.70;2.20;;;;;;;3.19;76.80;94680.94;5091485;28;20181;-73
2021/01/10 05:57:25;;;;;;;1.80;1.70;;;;;;;3.13;77.27;94689.28;5091052;28;20182;-74
2021/01/10 05:59:52;;;;;;;2.28;2.08;;;;;;;3.00;77.48;94679.59;5090206;28;20178;-74
2021/01/10 06:02:34;;;;;;;2.70;1.80;;;;;;;3.26;76.63;94667.31;5091044;28;20178;-76
2021/01/10 06:05:12;;;;;;;3.95;1.77;;;;;;;3.34;75.73;94657.88;5091497;28;20174;-74
2021/01/10 06:07:37;;;;;;;1.63;1.52;;;;;;;3.36;75.34;94658.34;5091144;28;20220;-75
2021/01/10 06:10:04;;;;;;;2.87;1.80;;;;;;;3.35;75.82;94665.47;5091549;28;20174;-75
2021/01/10 06:12:30;;;;;;;1.65;1.55;;;;;;;3.14;77.01;94675.00;5073940;28;20179;-74
2021/01/10 06:15:17;;;;;;;2.23;2.03;;;;;;;3.21;76.96;94671.94;5093822;28;20615;-74
2021/01/10 06:17:47;;;;;;;1.77;1.60;;;;;;;3.37;75.76;94665.19;5095047;28;20186;-74
2021/01/10 06:20:21;;;;;;;1.63;1.52;;;;;;;3.16;76.57;94657.03;5093851;28;20182;-74
2021/01/10 06:22:49;;;;;;;1.50;1.40;;;;;;;3.28;76.38;94675.72;5093640;28;20224;-73
2021/01/10 06:25:15;;;;;;;2.00;1.60;;;;;;;3.50;75.53;94676.72;5077029;28;20193;-76
2021/01/10 06:27:41;;;;;;;2.50;1.98;;;;;;;3.14;77.29;94675.00;5093831;28;20167;-73
2021/01/10 06:30:07;;;;;;;1.60;1.50;;;;;;;3.24;77.03;94684.53;5076819;28;20201;-75
2021/01/10 06:32:33;;;;;;;1.70;1.60;;;;;;;3.35;76.00;94686.59;5076455;28;20188;-74
2021/01/10 06:34:58;;;;;;;1.73;1.63;;;;;;;3.41;76.08;94660.84;5076660;28;20182;-75
2021/01/10 06:37:24;;;;;;;1.77;1.63;;;;;;;3.35;76.63;94640.97;5076168;28;20257;-76
2021/01/10 06:39:49;;;;;;;1.80;1.70;;;;;;;3.13;77.44;94654.97;5093491;28;20173;-77
2021/01/10 06:42:15;;;;;;;2.00;1.80;;;;;;;3.16;77.34;94680.78;5093087;28;20622;-75
2021/01/10 06:44:43;;;;;;;1.95;1.83;;;;;;;3.16;77.85;94688.69;5094824;28;20261;-76
2021/01/10 06:47:15;;;;;;;1.88;1.60;;;;;;;3.03;77.84;94708.00;5093308;28;20205;-75
2021/01/10 06:49:41;;;;;;;2.05;1.85;;;;;;;3.05;78.31;94711.13;5094465;28;20249;-76
2021/01/10 06:52:06;;;;;;;3.83;1.67;;;;;;;3.27;77.23;94705.03;5093439;28;20208;-76
2021/01/10 06:54:39;;;;;;;2.63;1.70;;;;;;;2.99;77.97;94713.09;5076124;28;20182;-76
2021/01/10 06:57:05;;;;;;;1.88;1.73;;;;;;;2.85;78.48;94702.59;5094132;28;20166;-74
2021/01/10 06:59:31;;;;;;;1.90;1.77;;;;;;;3.06;78.32;94705.53;5093350;28;20261;-77
2021/01/10 07:01:57;;;;;;;2.70;2.13;;;;;;;3.20;77.50;94705.47;5094726;28;20178;-77
2021/01/10 07:04:32;;;;;;;3.80;2.80;;;;;;;3.29;76.83;94716.06;5094089;28;20209;-77
2021/01/10 07:06:57;;;;;;;4.20;2.42;;;;;;;3.12;77.52;94709.59;5094190;28;20689;-76
2021/01/10 07:09:23;;;;;;;2.67;2.27;;;;;;;3.06;78.27;94707.41;5092654;28;20272;-75
2021/01/10 07:11:49;;;;;;;3.73;2.07;;;;;;;3.09;78.38;94715.50;5092692;28;20163;-76
2021/01/10 07:14:17;;;;;;;3.55;2.28;;;;;;;3.39;76.90;94719.22;5075771;28;20642;-75
2021/01/10 07:16:44;;;;;;;2.42;2.17;;;;;;;3.49;75.69;94710.28;5094779;28;20182;-75
2021/01/10 07:19:11;;;;;;;2.20;2.00;;;;;;;3.54;75.78;94710.16;5093760;28;20174;-74
2021/01/10 07:21:40;;;;;;;3.13;2.17;;;;;;;3.49;76.08;94726.13;5093826;28;20174;-74
2021/01/10 07:24:21;;;;;;;2.33;2.13;;;;;;;3.41;76.70;94737.41;5093521;28;20253;-74
2021/01/10 07:26:50;;;;;;;3.97;1.83;;;;;;;3.36;76.33;94742.78;5093944;28;20221;-75
2021/01/10 07:29:31;;;;;;;2.65;1.98;;;;;;;3.26;77.11;94729.88;5093435;28;20711;-77
2021/01/10 07:32:07;;;;;;;2.17;1.95;;;;;;;3.31;76.87;94735.81;5092571;28;20174;-76
2021/01/10 07:34:36;;;;;;;2.20;2.00;;;;;;;3.51;76.13;94723.94;5092690;28;20227;-75
2021/01/10 07:37:03;;;;;;;1.73;1.63;;;;;;;3.43;76.55;94729.97;5092223;28;20252;-75
2021/01/10 07:39:30;;;;;;;3.28;2.20;;;;;;;3.45;76.65;94743.63;5092925;28;20189;-75
2021/01/10 07:42:13;;;;;;;2.47;2.28;;;;;;;3.39;76.80;94732.44;5090484;28;20700;-77
2021/01/10 07:44:53;;;;;;;5.18;2.00;;;;;;;3.56;76.28;94733.59;5090525;28;20201;-73
2021/01/10 07:47:38;;;;;;;2.92;2.20;;;;;;;3.48;76.53;94735.13;5089312;28;20205;-76
2021/01/10 07:50:23;;;;;;;6.65;2.30;;;;;;;3.45;76.85;94718.00;5090869;28;20181;-73
2021/01/10 07:52:50;;;;;;;2.45;2.00;;;;;;;3.68;76.48;94725.88;5073989;28;20178;-77
2021/01/10 07:55:18;;;;;;;2.47;2.10;;;;;;;3.64;76.02;94727.56;5092898;28;20166;-72
2021/01/10 07:58:02;;;;;;;2.50;1.98;;;;;;;3.93;75.89;94750.84;5092917;28;20189;-75
2021/01/10 08:00:33;;;;;;;4.18;2.33;;;;;;;3.95;74.89;94732.81;5092163;28;20181;-74
2021/01/10 08:03:02;;;;;;;1.80;1.70;;;;;;;3.95;75.21;94735.47;5093023;28;20226;-74
2021/01/10 08:05:41;;;;;;;4.22;2.30;;;;;;;4.04;74.77;94733.63;5093540;28;20174;-74
2021/01/10 08:08:12;;;;;;;2.38;2.17;;;;;;;3.97;75.09;94741.97;5091532;28;20277;-73
2021/01/10 08:10:53;;;;;;;2.42;2.05;;;;;;;3.97;74.69;94741.97;5092829;28;20210;-73
2021/01/10 08:13:40;;;;;;;2.60;2.28;;;;;;;4.13;73.74;94741.56;5074996;28;20597;-73
2021/01/10 08:16:09;;;;;;;3.08;2.22;;;;;;;3.87;74.65;94749.41;5092547;28;20182;-73
2021/01/10 08:18:45;;;;;;;3.40;2.47;;;;;;;3.70;75.28;94752.75;5092682;28;20178;-75
2021/01/10 08:21:14;;;;;;;3.67;2.40;;;;;;;3.81;75.21;94746.13;5090871;28;20268;-75
2021/01/10 08:23:41;;;;;;;3.08;2.60;;;;;;;3.81;75.42;94740.84;5091690;28;20674;-75
2021/01/10 08:26:14;;;;;;;2.55;2.00;;;;;;;3.94;75.57;94734.69;5091096;28;20216;-73
2021/01/10 08:28:40;;;;;;;4.32;2.80;;;;;;;3.69;76.86;94740.63;5091385;28;20182;-73
2021/01/10 08:31:07;;;;;;;3.00;2.60;;;;;;;3.56;77.26;94747.56;5092620;28;20180;-73
2021/01/10 08:33:33;;;;;;;2.35;1.88;;;;;;;3.83;75.90;94745.81;5093327;28;20188;-74
2021/01/10 08:36:15;;;;;;;2.63;2.07;;;;;;;3.81;75.83;94766.47;5091937;28;20218;-77
2021/01/10 08:38:57;;;;;;;4.80;2.20;;;;;;;3.49;77.30;94752.50;5091303;28;20174;-74
2021/01/10 08:41:36;;;;;;;3.10;2.05;;;;;;;3.79;75.50;94753.56;5092149;28;20173;-73
2021/01/10 08:44:12;;;;;;;2.95;2.20;;;;;;;3.71;76.25;94752.47;5091052;28;20186;-74
2021/01/10 08:46:39;;;;;;;2.72;2.47;;;;;;;3.72;76.28;94742.69;5090289;28;20248;-73
2021/01/10 08:49:04;;;;;;;2.85;2.33;;;;;;;3.72;76.85;94761.94;5074577;28;20198;-75
2021/01/10 08:51:34;;;;;;;3.70;2.07;;;;;;;3.65;77.46;94774.03;5092394;28;20213;-72
2021/01/10 08:54:10;;;;;;;2.45;2.25;;;;;;;3.59;77.04;94786.59;5091307;28;20174;-74
2021/01/10 08:56:35;;;;;;;3.03;2.28;;;;;;;3.56;77.77;94776.63;5092356;28;20178;-74
2021/01/10 08:59:01;;;;;;;5.93;3.13;;;;;;;3.78;76.47;94765.22;5074098;28;20227;-73
2021/01/10 09:01:27;;;;;;;2.27;2.03;;;;;;;3.90;75.13;94762.78;5092388;28;20198;-74
2021/01/10 09:04:06;;;;;;;8.00;3.37;;;;;;;3.91;75.45;94766.19;5093115;28;20167;-73
2021/01/10 09:06:36;;;;;;;5.15;3.30;;;;;;;3.70;75.57;94758.03;5091404;28;20197;-75
2021/01/10 09:09:07;;;;;;;4.90;2.85;;;;;;;3.65;76.98;94747.63;5091209;28;20173;-74
2021/01/10 09:11:34;;;;;;;4.43;3.17;;;;;;;3.70;77.63;94758.03;5090610;28;20423;-73
2021/01/10 09:14:00;;;;;;;4.78;3.38;;;;;;;3.70;77.37;94747.47;5090933;28;20185;-73
2021/01/10 09:16:26;;;;;;;3.70;2.75;;;;;;;3.87;76.03;94723.78;5073628;28;20231;-73
2021/01/10 09:18:52;;;;;;;3.63;2.37;;;;;;;3.88;75.38;94727.97;5073899;28;20558;-73
2021/01/10 09:21:25;;;;;;;3.97;2.13;;;;;;;3.74;75.56;94732.56;5073693;28;20171;-74
2021/01/10 09:23:53;;;;;;;3.42;2.42;;;;;;;3.78;76.29;94725.59;5090780;28;20257;-76
2021/01/10 09:26:28;;;;;;;4.68;2.78;;;;;;;3.61;77.48;94736.88;5090260;28;20592;-73
2021/01/10 09:28:55;;;;;;;3.63;2.28;;;;;;;3.64;77.49;94740.75;5092723;28;20716;-74
2021/01/10 09:31:20;;;;;;;3.53;2.15;;;;;;;3.72;76.83;94746.09;5091730;28;20598;-74
2021/01/10 09:33:53;;;;;;;5.93;2.40;;;;;;;3.71;76.41;94735.84;5091867;28;20260;-75
2021/01/10 09:36:18;;;;;;;3.08;2.63;;;;;;;3.85;75.40;94720.66;5073363;28;20221;-75
2021/01/10 09:38:54;;;;;;;9.83;3.00;;;;;;;3.62;76.98;94727.09;5091514;28;20193;-74
2021/01/10 09:41:19;;;;;;;4.88;4.03;;;;;;;3.61;77.27;94721.03;5090115;28;20166;-74
2021/01/10 09:43:52;;;;;;;3.60;2.80;;;;;;;3.72;77.71;94716.28;5090429;28;20186;-73
2021/01/10 09:46:34;;;;;;;2.80;2.55;;;;;;;3.72;77.71;94722.31;5090599;28;20202;-74
2021/01/10 09:49:19;;;;;;;3.10;2.22;;;;;;;3.95;76.51;94725.66;5093864;28;20295;-75
2021/01/10 09:51:55;;;;;;;4.07;2.80;;;;;;;3.92;76.60;94731.53;5095781;28;20253;-73
2021/01/10 09:54:31;;;;;;;3.90;2.75;;;;;;;3.75;76.94;94739.41;5096296;28;20666;-75
2021/01/10 09:57:00;;;;;;;3.72;2.80;;;;;;;3.81;77.80;94727.63;5094862;28;20174;-76
2021/01/10 09:59:41;;;;;;;4.63;2.83;;;;;;;4.02;76.39;94725.22;5096645;28;20174;-76
2021/01/10 10:02:16;;;;;;;3.70;2.70;;;;;;;4.10;75.84;94716.53;5078957;28;20685;-73
2021/01/10 10:04:45;;;;;;;5.82;3.08;;;;;;;3.93;77.05;94705.94;5095843;28;20190;-76
2021/01/10 10:07:11;;;;;;;5.07;3.65;;;;;;;4.05;75.81;94694.78;5095638;28;20224;-75
2021/01/10 10:09:50;;;;;;;5.20;2.88;;;;;;;4.22;75.69;94697.44;5097394;28;20263;-75
2021/01/10 10:12:15;;;;;;;8.00;3.85;;;;;;;4.29;74.92;94691.69;5098186;28;20255;-73
2021/01/10 10:14:54;;;;;;;5.13;3.37;;;;;;;3.93;77.70;94682.94;5096609;28;20691;-76
2021/01/10 10:17:20;;;;;;;4.25;3.28;;;;;;;3.94;77.56;94689.00;5094878;28;20262;-75
2021/01/10 10:19:46;;;;;;;3.95;3.03;;;;;;;3.95;77.15;94672.84;5094745;28;20186;-73
2021/01/10 10:22:28;;;;;;;5.17;3.70;;;;;;;4.21;76.10;94672.88;5094083;28;20570;-72
2021/01/10 10:24:54;;;;;;;2.55;2.35;;;;;;;4.16;74.48;94656.41;5094774;28;20680;-72
2021/01/10 10:27:19;;;;;;;3.57;3.03;;;;;;;4.15;74.96;94660.91;5080196;28;20300;-73
2021/01/10 10:29:45;;;;;;;4.77;3.00;;;;;;;4.08;76.78;94660.56;5086575;28;20182;-73
2021/01/10 10:32:11;;;;;;;4.10;2.50;;;;;;;4.22;75.02;94652.53;5074416;28;20567;-73
2021/01/10 10:34:36;;;;;;;3.83;3.10;;;;;;;4.27;75.02;94636.50;5074748;28;20213;-72
2021/01/10 10:37:03;;;;;;;4.57;2.90;;;;;;;4.08;76.12;94665.84;5074738;28;20223;-73
2021/01/10 10:39:28;;;;;;;4.07;3.00;;;;;;;4.09;76.97;94667.41;5087776;28;20216;-73
2021/01/10 10:41:54;;;;;;;3.97;2.57;;;;;;;4.27;76.43;94657.66;5104698;28;20301;-74
2021/01/10 10:44:19;;;;;;;5.20;3.30;;;;;;;4.14;77.51;94664.63;5094341;28;20699;-75
2021/01/10 10:46:45;;;;;;;6.30;3.53;;;;;;;3.91;78.06;94665.81;5091395;28;20210;-76
2021/01/10 10:49:11;;;;;;;4.17;3.47;;;;;;;3.91;77.99;94657.91;5092100;28;20233;-73
2021/01/10 10:51:36;;;;;;;3.97;3.03;;;;;;;4.13;77.06;94657.78;5095963;28;20692;-73
2021/01/10 10:54:02;;;;;;;4.90;3.17;;;;;;;4.15;76.55;94649.53;5094857;28;20159;-73
2021/01/10 10:56:39;;;;;;;3.90;3.27;;;;;;;4.11;76.89;94659.19;5113596;28;20519;-75
2021/01/10 10:59:05;;;;;;;4.15;2.90;;;;;;;4.13;75.37;94652.50;5111319;28;20193;-75
2021/01/10 11:01:41;;;;;;;4.60;3.20;;;;;;;4.18;75.89;94649.69;5098617;28;20178;-75
2021/01/10 11:04:07;;;;;;;4.32;2.75;;;;;;;4.21;75.89;94656.25;5096552;28;20174;-76
2021/01/10 11:06:33;;;;;;;6.13;3.87;;;;;;;3.98;76.76;94669.59;5093320;28;20314;-74
2021/01/10 11:08:59;;;;;;;6.13;3.92;;;;;;;3.83;77.92;94659.44;5093510;28;20290;-74
2021/01/10 11:11:33;;;;;;;4.33;3.03;;;;;;;3.97;76.62;94638.16;5094711;28;20191;-72
2021/01/10 11:13:59;;;;;;;3.75;2.70;;;;;;;4.07;76.77;94658.25;5094739;28;20174;-74
2021/01/10 11:16:31;;;;;;;4.77;2.93;;;;;;;3.92;77.95;94649.66;5095165;28;20196;-75
2021/01/10 11:18:57;;;;;;;3.90;2.63;;;;;;;3.86;77.90;94648.25;5094265;28;20181;-73
2021/01/10 11:21:33;;;;;;;5.13;3.27;;;;;;;3.98;77.42;94655.56;5094181;28;20186;-73
2021/01/10 11:23:58;;;;;;;3.78;2.53;;;;;;;4.17;76.31;94648.16;5092841;28;20253;-74
2021/01/10 11:26:24;;;;;;;4.47;2.50;;;;;;;4.09;77.64;94645.50;5093235;28;20753;-76
2021/01/10 11:28:49;;;;;;;2.73;2.40;;;;;;;4.15;77.00;94638.97;5094306;28;20166;-74
2021/01/10 11:31:18;;;;;;;3.13;2.50;;;;;;;4.14;76.85;94645.34;5095063;28;20177;-74
2021/01/10 11:33:44;;;;;;;4.20;2.70;;;;;;;3.89;77.45;94633.66;5094521;28;20179;-75
2021/01/10 11:36:10;;;;;;;4.17;3.23;;;;;;;4.08;77.01;94628.09;5095067;28;20762;-75
2021/01/10 11:38:35;;;;;;;3.53;2.67;;;;;;;3.76;77.95;94627.44;5076718;28;20190;-74
2021/01/10 11:41:08;;;;;;;3.07;2.77;;;;;;;3.97;77.24;94620.44;5094098;28;20631;-74
2021/01/10 11:43:34;;;;;;;6.05;3.70;;;;;;;4.10;76.64;94604.78;5094075;28;20174;-73
2021/01/10 11:45:59;;;;;;;5.07;2.90;;;;;;;4.33;75.36;94608.84;5093320;28;20277;-73
2021/01/10 11:48:25;;;;;;;4.40;2.50;;;;;;;4.20;75.75;94604.47;5092596;28;20543;-75
2021/01/10 11:50:50;;;;;;;5.17;2.90;;;;;;;4.30;75.34;94590.16;5091712;28;20582;-76
2021/01/10 11:53:16;;;;;;;6.50;2.70;;;;;;;4.40;74.50;94579.28;5088999;28;20178;-76
2021/01/10 11:55:41;;;;;;;2.13;1.90;;;;;;;4.38;74.65;94589.41;5079927;28;20253;-74
2021/01/10 11:58:06;;;;;;;4.10;2.07;;;;;;;4.28;75.26;94582.56;5093776;28;20166;-77
2021/01/10 12:00:32;;;;;;;3.50;2.37;;;;;;;4.27;76.20;94562.50;5092447;28;20204;-75
2021/01/10 12:02:58;;;;;;;4.07;2.77;;;;;;;4.14;76.48;94563.44;5092762;28;20177;-73
2021/01/10 12:05:23;;;;;;;3.70;2.30;;;;;;;4.32;75.35;94559.69;5055441;28;20604;-74
2021/01/10 12:07:49;;;;;;;4.57;2.43;;;;;;;4.13;76.53;94573.22;5085579;28;20265;-76
2021/01/10 12:10:14;;;;;;;6.83;2.30;;;;;;;4.10;75.93;94578.38;5071520;28;20518;-74